Orsk Airport
UWOR : now visible

Airfield :











YOU CAN JOIN US ON...

 
LOGIN :

Register | Disclaimer

   EN    FR    IT 

 









Legend :    VFR   Marginal VFR   IFR   Intensive IFR   Very Intensive IFR
Visi :
Ceiling :
>= 8 km
>= 3000ft
5 to 8 km
1000 to 3000 ft
1500m to 5 km
500 to 1000 ft
800 to 1500m
200 to 500 ft
< 800m
< 200 ft
Symbols :   Thunderstorms  Fog  Heavy snow  Heavy precipitations  Wind > 20 kt






- Airport Elevation : 909 ft
- IATA code : OSW


UWOR - Orsk

CURRENT METAR :
  • 271100Z 25009MPS CAVOK 01/M02 Q1019 R25/920045 NOSIG RMK QFE741/0988

EXPIRED METARs :
  • 271000Z 23006MPS CAVOK 01/M01 Q1019 R25/920045 NOSIG RMK QFE740/0987
  • 270900Z 23004MPS 9999 BKN048 01/M02 Q1018 R25/920045 NOSIG RMK QFE740/0987

TAF TAF UWOR
Valid from the 27 at 12:00 until the 27 at 21:00 UTC


271056Z 2712/2721 25008G14MPS 9999 OVC016 TX01/2712Z TNM00/2717Z
TEMPO 2712/2721 22009G17MPS 2000 SNRA BKN007



MET'MAP, your aeronautical weather chart ! - Copyright ORBIFLY December 2007 - Disclaimer

ORBIFLY MET'MAP TEAM :

Programming & Development : Alexandra Zaïnal
Concept & original design : Baudouin d'Aumeries
Assistance for programming : Marc-Olivier Méhu
Technical & hardware support : Manuel Goepfert

Contact : metmap@orbifly.com




SOURCES & CREDITS :

   NOAA       Earth
Advisory